sensor_id;sensor_type;location;lat;lon;timestamp;P1;durP1;ratioP1;P2;durP2;ratioP2
53052;SDS011;38934;52.690;6.184;2023-05-14T00:04:05;18.13;;;12.98;;
53052;SDS011;38934;52.690;6.184;2023-05-14T00:06:33;21.77;;;12.25;;
53052;SDS011;38934;52.690;6.184;2023-05-14T00:08:59;16.50;;;12.00;;
53052;SDS011;38934;52.690;6.184;2023-05-14T00:14:21;18.33;;;12.40;;
53052;SDS011;38934;52.690;6.184;2023-05-14T00:20:32;17.58;;;13.32;;
53052;SDS011;38934;52.690;6.184;2023-05-14T00:22:59;20.73;;;12.32;;
53052;SDS011;38934;52.690;6.184;2023-05-14T00:25:27;19.60;;;13.68;;
53052;SDS011;38934;52.690;6.184;2023-05-14T00:27:52;20.92;;;13.05;;
53052;SDS011;38934;52.690;6.184;2023-05-14T00:30:22;20.30;;;13.15;;
53052;SDS011;38934;52.690;6.184;2023-05-14T00:35:38;21.40;;;13.50;;
53052;SDS011;38934;52.690;6.184;2023-05-14T00:38:08;17.35;;;12.95;;
53052;SDS011;38934;52.690;6.184;2023-05-14T00:43:30;18.55;;;14.32;;
53052;SDS011;38934;52.690;6.184;2023-05-14T00:45:57;20.77;;;14.52;;
53052;SDS011;38934;52.690;6.184;2023-05-14T00:48:35;21.13;;;14.05;;
53052;SDS011;38934;52.690;6.184;2023-05-14T00:51:12;21.75;;;13.98;;
53052;SDS011;38934;52.690;6.184;2023-05-14T00:53:52;18.67;;;13.38;;
53052;SDS011;38934;52.690;6.184;2023-05-14T00:56:23;18.60;;;13.68;;
53052;SDS011;38934;52.690;6.184;2023-05-14T00:58:50;16.85;;;12.95;;
53052;SDS011;38934;52.690;6.184;2023-05-14T01:01:22;18.63;;;13.90;;
53052;SDS011;38934;52.690;6.184;2023-05-14T01:03:57;20.42;;;12.88;;
53052;SDS011;38934;52.690;6.184;2023-05-14T01:06:40;19.00;;;13.50;;
53052;SDS011;38934;52.690;6.184;2023-05-14T01:09:34;20.45;;;14.18;;
53052;SDS011;38934;52.690;6.184;2023-05-14T01:17:21;18.83;;;13.98;;
53052;SDS011;38934;52.690;6.184;2023-05-14T01:19:55;20.70;;;14.70;;
53052;SDS011;38934;52.690;6.184;2023-05-14T01:22:34;22.00;;;13.80;;
53052;SDS011;38934;52.690;6.184;2023-05-14T01:25:04;20.63;;;14.55;;
53052;SDS011;38934;52.690;6.184;2023-05-14T01:31:00;21.23;;;13.25;;
53052;SDS011;38934;52.690;6.184;2023-05-14T01:36:28;22.67;;;14.68;;
53052;SDS011;38934;52.690;6.184;2023-05-14T01:39:01;21.30;;;14.73;;
53052;SDS011;38934;52.690;6.184;2023-05-14T01:41:27;20.92;;;14.20;;
53052;SDS011;38934;52.690;6.184;2023-05-14T01:46:47;21.63;;;14.60;;
53052;SDS011;38934;52.690;6.184;2023-05-14T01:49:14;22.73;;;14.50;;
53052;SDS011;38934;52.690;6.184;2023-05-14T01:54:24;20.08;;;14.63;;
53052;SDS011;38934;52.690;6.184;2023-05-14T01:56:58;20.33;;;13.98;;
53052;SDS011;38934;52.690;6.184;2023-05-14T01:59:32;21.92;;;14.27;;
53052;SDS011;38934;52.690;6.184;2023-05-14T02:02:05;22.05;;;15.18;;
53052;SDS011;38934;52.690;6.184;2023-05-14T02:10:35;18.73;;;13.52;;
53052;SDS011;38934;52.690;6.184;2023-05-14T02:13:15;21.65;;;14.27;;
53052;SDS011;38934;52.690;6.184;2023-05-14T02:15:51;19.23;;;13.93;;
53052;SDS011;38934;52.690;6.184;2023-05-14T02:18:28;23.33;;;14.57;;
53052;SDS011;38934;52.690;6.184;2023-05-14T02:23:41;18.48;;;13.43;;
53052;SDS011;38934;52.690;6.184;2023-05-14T02:26:16;18.00;;;13.23;;
53052;SDS011;38934;52.690;6.184;2023-05-14T02:28:42;23.45;;;13.48;;
53052;SDS011;38934;52.690;6.184;2023-05-14T02:33:52;21.83;;;13.93;;
53052;SDS011;38934;52.690;6.184;2023-05-14T02:36:22;21.05;;;13.38;;
53052;SDS011;38934;52.690;6.184;2023-05-14T02:38:47;19.83;;;14.20;;
53052;SDS011;38934;52.690;6.184;2023-05-14T02:41:29;20.55;;;14.18;;
53052;SDS011;38934;52.690;6.184;2023-05-14T02:43:55;21.42;;;14.73;;
53052;SDS011;38934;52.690;6.184;2023-05-14T02:46:22;22.42;;;14.10;;
53052;SDS011;38934;52.690;6.184;2023-05-14T02:48:53;21.40;;;14.82;;
53052;SDS011;38934;52.690;6.184;2023-05-14T02:51:20;19.02;;;13.30;;
53052;SDS011;38934;52.690;6.184;2023-05-14T02:53:46;21.38;;;14.10;;
53052;SDS011;38934;52.690;6.184;2023-05-14T02:56:21;21.48;;;13.82;;
53052;SDS011;38934;52.690;6.184;2023-05-14T02:58:52;20.63;;;13.52;;
53052;SDS011;38934;52.690;6.184;2023-05-14T03:01:17;22.30;;;13.65;;
53052;SDS011;38934;52.690;6.184;2023-05-14T03:03:43;22.27;;;14.40;;
53052;SDS011;38934;52.690;6.184;2023-05-14T03:08:53;23.15;;;13.23;;
53052;SDS011;38934;52.690;6.184;2023-05-14T03:11:26;20.05;;;12.95;;
53052;SDS011;38934;52.690;6.184;2023-05-14T03:16:20;18.70;;;11.52;;
53052;SDS011;38934;52.690;6.184;2023-05-14T03:18:59;20.45;;;12.20;;
53052;SDS011;38934;52.690;6.184;2023-05-14T03:26:23;19.20;;;13.65;;
53052;SDS011;38934;52.690;6.184;2023-05-14T03:28:51;18.92;;;12.93;;
53052;SDS011;38934;52.690;6.184;2023-05-14T03:31:19;18.35;;;12.60;;
53052;SDS011;38934;52.690;6.184;2023-05-14T03:33:49;20.33;;;13.00;;
53052;SDS011;38934;52.690;6.184;2023-05-14T03:36:19;15.60;;;11.30;;
53052;SDS011;38934;52.690;6.184;2023-05-14T03:38:44;19.73;;;12.80;;
53052;SDS011;38934;52.690;6.184;2023-05-14T03:41:15;20.02;;;12.85;;
53052;SDS011;38934;52.690;6.184;2023-05-14T03:43:50;19.08;;;12.50;;
53052;SDS011;38934;52.690;6.184;2023-05-14T03:46:25;21.35;;;11.57;;
53052;SDS011;38934;52.690;6.184;2023-05-14T03:48:52;18.55;;;12.43;;
53052;SDS011;38934;52.690;6.184;2023-05-14T03:51:20;15.23;;;11.48;;
53052;SDS011;38934;52.690;6.184;2023-05-14T03:54:02;23.10;;;12.75;;
53052;SDS011;38934;52.690;6.184;2023-05-14T04:01:59;17.77;;;11.68;;
53052;SDS011;38934;52.690;6.184;2023-05-14T04:04:28;18.73;;;12.50;;
53052;SDS011;38934;52.690;6.184;2023-05-14T04:07:01;18.90;;;13.07;;
53052;SDS011;38934;52.690;6.184;2023-05-14T04:12:16;17.23;;;11.67;;
53052;SDS011;38934;52.690;6.184;2023-05-14T04:14:48;20.73;;;13.57;;
53052;SDS011;38934;52.690;6.184;2023-05-14T04:17:17;18.05;;;12.80;;
53052;SDS011;38934;52.690;6.184;2023-05-14T04:19:47;18.48;;;12.27;;
53052;SDS011;38934;52.690;6.184;2023-05-14T04:22:20;21.13;;;13.20;;
53052;SDS011;38934;52.690;6.184;2023-05-14T04:24:48;17.50;;;12.18;;
53052;SDS011;38934;52.690;6.184;2023-05-14T04:27:27;18.02;;;12.00;;
53052;SDS011;38934;52.690;6.184;2023-05-14T04:30:00;18.38;;;11.90;;
53052;SDS011;38934;52.690;6.184;2023-05-14T04:32:33;20.58;;;12.85;;
53052;SDS011;38934;52.690;6.184;2023-05-14T04:35:03;16.85;;;11.63;;
53052;SDS011;38934;52.690;6.184;2023-05-14T04:40:16;14.60;;;11.68;;
53052;SDS011;38934;52.690;6.184;2023-05-14T04:42:42;18.58;;;11.88;;
53052;SDS011;38934;52.690;6.184;2023-05-14T04:45:17;17.52;;;11.90;;
53052;SDS011;38934;52.690;6.184;2023-05-14T04:47:50;17.98;;;11.73;;
53052;SDS011;38934;52.690;6.184;2023-05-14T04:53:13;20.63;;;13.10;;
53052;SDS011;38934;52.690;6.184;2023-05-14T04:55:46;22.27;;;13.27;;
53052;SDS011;38934;52.690;6.184;2023-05-14T04:58:12;17.23;;;11.75;;
53052;SDS011;38934;52.690;6.184;2023-05-14T05:00:41;20.98;;;12.13;;
53052;SDS011;38934;52.690;6.184;2023-05-14T05:03:17;22.65;;;12.20;;
53052;SDS011;38934;52.690;6.184;2023-05-14T05:05:43;17.27;;;12.57;;
53052;SDS011;38934;52.690;6.184;2023-05-14T05:08:09;21.98;;;12.98;;
53052;SDS011;38934;52.690;6.184;2023-05-14T05:10:40;23.42;;;13.90;;
53052;SDS011;38934;52.690;6.184;2023-05-14T05:13:15;23.70;;;14.27;;
53052;SDS011;38934;52.690;6.184;2023-05-14T05:15:43;21.05;;;13.63;;
53052;SDS011;38934;52.690;6.184;2023-05-14T05:18:13;27.73;;;14.13;;
53052;SDS011;38934;52.690;6.184;2023-05-14T05:20:41;22.60;;;13.90;;
53052;SDS011;38934;52.690;6.184;2023-05-14T05:23:06;27.00;;;14.38;;
53052;SDS011;38934;52.690;6.184;2023-05-14T05:25:32;21.95;;;13.85;;
53052;SDS011;38934;52.690;6.184;2023-05-14T05:27:58;23.40;;;14.82;;
53052;SDS011;38934;52.690;6.184;2023-05-14T05:30:33;22.92;;;14.73;;
53052;SDS011;38934;52.690;6.184;2023-05-14T05:33:09;24.52;;;15.00;;
53052;SDS011;38934;52.690;6.184;2023-05-14T05:35:35;23.23;;;15.50;;
53052;SDS011;38934;52.690;6.184;2023-05-14T05:38:23;26.33;;;15.50;;
53052;SDS011;38934;52.690;6.184;2023-05-14T05:40:48;25.88;;;14.68;;
53052;SDS011;38934;52.690;6.184;2023-05-14T05:43:27;24.02;;;15.32;;
53052;SDS011;38934;52.690;6.184;2023-05-14T05:45:53;23.40;;;14.43;;
53052;SDS011;38934;52.690;6.184;2023-05-14T05:48:27;25.38;;;15.68;;
53052;SDS011;38934;52.690;6.184;2023-05-14T05:50:58;23.83;;;15.13;;
53052;SDS011;38934;52.690;6.184;2023-05-14T05:56:36;26.95;;;16.45;;
53052;SDS011;38934;52.690;6.184;2023-05-14T05:59:01;24.30;;;14.85;;
53052;SDS011;38934;52.690;6.184;2023-05-14T06:01:29;24.58;;;16.38;;
53052;SDS011;38934;52.690;6.184;2023-05-14T06:06:49;24.30;;;15.00;;
53052;SDS011;38934;52.690;6.184;2023-05-14T06:09:26;22.63;;;15.25;;
53052;SDS011;38934;52.690;6.184;2023-05-14T06:14:54;22.00;;;15.38;;
53052;SDS011;38934;52.690;6.184;2023-05-14T06:17:26;19.08;;;14.05;;
53052;SDS011;38934;52.690;6.184;2023-05-14T06:20:05;25.38;;;14.55;;
53052;SDS011;38934;52.690;6.184;2023-05-14T06:22:43;23.05;;;14.85;;
53052;SDS011;38934;52.690;6.184;2023-05-14T06:25:16;24.20;;;14.32;;
53052;SDS011;38934;52.690;6.184;2023-05-14T06:27:54;21.98;;;13.82;;
53052;SDS011;38934;52.690;6.184;2023-05-14T06:30:19;24.45;;;15.13;;
53052;SDS011;38934;52.690;6.184;2023-05-14T06:32:54;22.40;;;13.60;;
53052;SDS011;38934;52.690;6.184;2023-05-14T06:38:48;18.05;;;12.85;;
53052;SDS011;38934;52.690;6.184;2023-05-14T06:41:16;18.75;;;13.30;;
53052;SDS011;38934;52.690;6.184;2023-05-14T06:43:41;19.25;;;12.57;;
53052;SDS011;38934;52.690;6.184;2023-05-14T06:46:12;19.35;;;13.40;;
53052;SDS011;38934;52.690;6.184;2023-05-14T06:48:43;16.58;;;12.77;;
53052;SDS011;38934;52.690;6.184;2023-05-14T06:51:14;19.17;;;12.20;;
53052;SDS011;38934;52.690;6.184;2023-05-14T06:53:41;23.27;;;12.60;;
53052;SDS011;38934;52.690;6.184;2023-05-14T06:59:48;17.02;;;11.25;;
53052;SDS011;38934;52.690;6.184;2023-05-14T07:02:22;18.52;;;11.80;;
53052;SDS011;38934;52.690;6.184;2023-05-14T07:04:47;17.92;;;11.95;;
53052;SDS011;38934;52.690;6.184;2023-05-14T07:07:29;17.17;;;11.55;;
53052;SDS011;38934;52.690;6.184;2023-05-14T07:12:49;17.63;;;11.23;;
53052;SDS011;38934;52.690;6.184;2023-05-14T07:15:15;17.83;;;10.57;;
53052;SDS011;38934;52.690;6.184;2023-05-14T07:17:47;15.65;;;10.40;;
53052;SDS011;38934;52.690;6.184;2023-05-14T07:20:30;15.15;;;10.25;;
53052;SDS011;38934;52.690;6.184;2023-05-14T07:22:57;14.55;;;9.80;;
53052;SDS011;38934;52.690;6.184;2023-05-14T07:25:32;16.33;;;10.40;;
53052;SDS011;38934;52.690;6.184;2023-05-14T07:28:19;12.88;;;9.63;;
53052;SDS011;38934;52.690;6.184;2023-05-14T07:32:11;15.68;;;10.65;;
53052;SDS011;38934;52.690;6.184;2023-05-14T07:34:50;13.20;;;9.20;;
53052;SDS011;38934;52.690;6.184;2023-05-14T07:37:22;16.17;;;9.60;;
53052;SDS011;38934;52.690;6.184;2023-05-14T07:39:52;15.10;;;9.02;;
53052;SDS011;38934;52.690;6.184;2023-05-14T07:42:24;13.48;;;8.27;;
53052;SDS011;38934;52.690;6.184;2023-05-14T07:44:54;14.15;;;9.15;;
53052;SDS011;38934;52.690;6.184;2023-05-14T07:47:19;14.38;;;8.77;;
53052;SDS011;38934;52.690;6.184;2023-05-14T07:49:45;12.93;;;8.52;;
53052;SDS011;38934;52.690;6.184;2023-05-14T07:52:11;11.05;;;8.57;;
53052;SDS011;38934;52.690;6.184;2023-05-14T07:54:37;12.68;;;8.48;;
53052;SDS011;38934;52.690;6.184;2023-05-14T07:57:04;10.40;;;7.60;;
53052;SDS011;38934;52.690;6.184;2023-05-14T07:59:31;13.77;;;9.13;;
53052;SDS011;38934;52.690;6.184;2023-05-14T08:01:56;12.50;;;8.05;;
53052;SDS011;38934;52.690;6.184;2023-05-14T08:04:22;11.35;;;8.00;;
53052;SDS011;38934;52.690;6.184;2023-05-14T08:06:50;12.90;;;8.30;;
53052;SDS011;38934;52.690;6.184;2023-05-14T08:09:15;9.95;;;7.53;;
53052;SDS011;38934;52.690;6.184;2023-05-14T08:11:44;12.40;;;7.60;;
53052;SDS011;38934;52.690;6.184;2023-05-14T08:14:10;11.45;;;7.53;;
53052;SDS011;38934;52.690;6.184;2023-05-14T08:16:36;9.95;;;7.50;;
53052;SDS011;38934;52.690;6.184;2023-05-14T08:19:02;11.98;;;7.25;;
53052;SDS011;38934;52.690;6.184;2023-05-14T08:21:28;10.77;;;7.78;;
53052;SDS011;38934;52.690;6.184;2023-05-14T08:23:54;13.13;;;7.97;;
53052;SDS011;38934;52.690;6.184;2023-05-14T08:26:19;11.02;;;7.15;;
53052;SDS011;38934;52.690;6.184;2023-05-14T08:28:45;11.13;;;7.95;;
53052;SDS011;38934;52.690;6.184;2023-05-14T08:31:12;12.48;;;7.78;;
53052;SDS011;38934;52.690;6.184;2023-05-14T08:33:38;13.35;;;8.05;;
53052;SDS011;38934;52.690;6.184;2023-05-14T08:36:04;11.75;;;8.10;;
53052;SDS011;38934;52.690;6.184;2023-05-14T08:38:31;12.73;;;8.13;;
53052;SDS011;38934;52.690;6.184;2023-05-14T08:41:00;11.23;;;8.25;;
53052;SDS011;38934;52.690;6.184;2023-05-14T08:43:37;12.10;;;7.37;;
53052;SDS011;38934;52.690;6.184;2023-05-14T08:46:17;13.20;;;7.43;;
53052;SDS011;38934;52.690;6.184;2023-05-14T08:48:51;9.88;;;7.07;;
53052;SDS011;38934;52.690;6.184;2023-05-14T08:51:23;10.40;;;6.88;;
53052;SDS011;38934;52.690;6.184;2023-05-14T08:53:51;8.65;;;6.70;;
53052;SDS011;38934;52.690;6.184;2023-05-14T08:56:17;10.23;;;7.07;;
53052;SDS011;38934;52.690;6.184;2023-05-14T08:58:45;11.43;;;6.88;;
53052;SDS011;38934;52.690;6.184;2023-05-14T09:01:11;10.70;;;6.63;;
53052;SDS011;38934;52.690;6.184;2023-05-14T09:03:37;11.30;;;6.85;;
53052;SDS011;38934;52.690;6.184;2023-05-14T09:06:03;9.52;;;6.00;;
53052;SDS011;38934;52.690;6.184;2023-05-14T09:08:30;9.35;;;6.47;;
53052;SDS011;38934;52.690;6.184;2023-05-14T09:10:57;11.25;;;6.80;;
53052;SDS011;38934;52.690;6.184;2023-05-14T09:13:23;11.68;;;6.50;;
53052;SDS011;38934;52.690;6.184;2023-05-14T09:15:48;9.63;;;6.40;;
53052;SDS011;38934;52.690;6.184;2023-05-14T09:18:15;8.55;;;6.18;;
53052;SDS011;38934;52.690;6.184;2023-05-14T09:20:42;10.35;;;5.72;;
53052;SDS011;38934;52.690;6.184;2023-05-14T09:23:09;9.02;;;5.85;;
53052;SDS011;38934;52.690;6.184;2023-05-14T09:25:35;9.95;;;5.93;;
53052;SDS011;38934;52.690;6.184;2023-05-14T09:28:04;9.60;;;6.00;;
53052;SDS011;38934;52.690;6.184;2023-05-14T09:30:30;8.38;;;6.20;;
53052;SDS011;38934;52.690;6.184;2023-05-14T09:32:59;10.70;;;6.43;;
53052;SDS011;38934;52.690;6.184;2023-05-14T09:35:24;10.02;;;5.70;;
53052;SDS011;38934;52.690;6.184;2023-05-14T09:37:51;6.47;;;5.03;;
53052;SDS011;38934;52.690;6.184;2023-05-14T09:40:18;13.18;;;6.15;;
53052;SDS011;38934;52.690;6.184;2023-05-14T09:42:45;9.65;;;6.03;;
53052;SDS011;38934;52.690;6.184;2023-05-14T09:45:15;8.13;;;5.57;;
53052;SDS011;38934;52.690;6.184;2023-05-14T09:47:40;9.30;;;5.00;;
53052;SDS011;38934;52.690;6.184;2023-05-14T09:50:07;7.85;;;4.75;;
53052;SDS011;38934;52.690;6.184;2023-05-14T09:55:51;10.00;;;4.53;;
53052;SDS011;38934;52.690;6.184;2023-05-14T09:58:17;6.85;;;4.88;;
53052;SDS011;38934;52.690;6.184;2023-05-14T10:00:43;10.25;;;5.68;;
53052;SDS011;38934;52.690;6.184;2023-05-14T10:03:12;8.43;;;5.03;;
53052;SDS011;38934;52.690;6.184;2023-05-14T10:05:40;10.15;;;4.78;;
53052;SDS011;38934;52.690;6.184;2023-05-14T10:11:43;9.05;;;5.10;;
53052;SDS011;38934;52.690;6.184;2023-05-14T10:14:19;7.97;;;4.57;;
53052;SDS011;38934;52.690;6.184;2023-05-14T10:16:53;9.52;;;4.70;;
53052;SDS011;38934;52.690;6.184;2023-05-14T10:19:25;8.23;;;4.57;;
53052;SDS011;38934;52.690;6.184;2023-05-14T10:21:56;7.00;;;4.45;;
53052;SDS011;38934;52.690;6.184;2023-05-14T10:24:29;9.48;;;4.22;;
53052;SDS011;38934;52.690;6.184;2023-05-14T10:26:55;7.32;;;4.10;;
53052;SDS011;38934;52.690;6.184;2023-05-14T10:29:36;7.40;;;4.45;;
53052;SDS011;38934;52.690;6.184;2023-05-14T10:32:06;6.80;;;4.43;;
53052;SDS011;38934;52.690;6.184;2023-05-14T10:34:39;7.40;;;4.28;;
53052;SDS011;38934;52.690;6.184;2023-05-14T10:37:11;6.40;;;4.00;;
53052;SDS011;38934;52.690;6.184;2023-05-14T10:39:45;8.50;;;4.00;;
53052;SDS011;38934;52.690;6.184;2023-05-14T10:42:31;6.88;;;3.92;;
53052;SDS011;38934;52.690;6.184;2023-05-14T10:45:12;6.95;;;3.75;;
53052;SDS011;38934;52.690;6.184;2023-05-14T10:47:46;6.53;;;4.75;;
53052;SDS011;38934;52.690;6.184;2023-05-14T10:50:19;6.82;;;4.63;;
53052;SDS011;38934;52.690;6.184;2023-05-14T10:52:46;5.90;;;4.00;;
53052;SDS011;38934;52.690;6.184;2023-05-14T10:55:12;7.10;;;4.00;;
53052;SDS011;38934;52.690;6.184;2023-05-14T10:57:40;6.43;;;4.40;;
53052;SDS011;38934;52.690;6.184;2023-05-14T11:00:07;6.35;;;4.10;;
53052;SDS011;38934;52.690;6.184;2023-05-14T11:02:36;5.65;;;3.85;;
53052;SDS011;38934;52.690;6.184;2023-05-14T11:05:15;5.80;;;3.95;;
53052;SDS011;38934;52.690;6.184;2023-05-14T11:07:45;6.82;;;4.35;;
53052;SDS011;38934;52.690;6.184;2023-05-14T11:12:46;6.43;;;3.80;;
53052;SDS011;38934;52.690;6.184;2023-05-14T11:15:14;8.95;;;4.20;;
53052;SDS011;38934;52.690;6.184;2023-05-14T11:17:41;7.38;;;4.20;;
53052;SDS011;38934;52.690;6.184;2023-05-14T11:20:08;6.00;;;3.90;;
53052;SDS011;38934;52.690;6.184;2023-05-14T11:22:37;7.00;;;3.85;;
53052;SDS011;38934;52.690;6.184;2023-05-14T11:25:04;7.20;;;3.80;;
53052;SDS011;38934;52.690;6.184;2023-05-14T11:27:32;7.53;;;3.80;;
53052;SDS011;38934;52.690;6.184;2023-05-14T11:30:01;6.80;;;3.97;;
53052;SDS011;38934;52.690;6.184;2023-05-14T11:32:31;6.90;;;3.75;;
53052;SDS011;38934;52.690;6.184;2023-05-14T11:35:00;6.45;;;3.95;;
53052;SDS011;38934;52.690;6.184;2023-05-14T11:37:30;7.38;;;4.20;;
53052;SDS011;38934;52.690;6.184;2023-05-14T11:39:59;6.70;;;3.70;;
53052;SDS011;38934;52.690;6.184;2023-05-14T11:42:25;5.55;;;3.40;;
53052;SDS011;38934;52.690;6.184;2023-05-14T11:44:51;5.65;;;3.90;;
53052;SDS011;38934;52.690;6.184;2023-05-14T11:47:19;7.25;;;4.10;;
53052;SDS011;38934;52.690;6.184;2023-05-14T11:49:46;5.75;;;3.95;;
53052;SDS011;38934;52.690;6.184;2023-05-14T11:54:46;7.60;;;4.00;;
53052;SDS011;38934;52.690;6.184;2023-05-14T11:57:16;6.90;;;3.28;;
53052;SDS011;38934;52.690;6.184;2023-05-14T11:59:54;5.25;;;3.95;;
53052;SDS011;38934;52.690;6.184;2023-05-14T12:02:26;6.57;;;3.67;;
53052;SDS011;38934;52.690;6.184;2023-05-14T12:04:53;5.43;;;3.83;;
53052;SDS011;38934;52.690;6.184;2023-05-14T12:07:21;7.57;;;3.80;;
53052;SDS011;38934;52.690;6.184;2023-05-14T12:09:47;6.90;;;3.83;;
53052;SDS011;38934;52.690;6.184;2023-05-14T12:12:14;5.57;;;4.00;;
53052;SDS011;38934;52.690;6.184;2023-05-14T12:14:44;5.93;;;3.83;;
53052;SDS011;38934;52.690;6.184;2023-05-14T12:17:14;5.43;;;3.42;;
53052;SDS011;38934;52.690;6.184;2023-05-14T12:19:41;7.03;;;3.95;;
53052;SDS011;38934;52.690;6.184;2023-05-14T12:22:08;5.05;;;3.70;;
53052;SDS011;38934;52.690;6.184;2023-05-14T12:24:35;5.18;;;3.17;;
53052;SDS011;38934;52.690;6.184;2023-05-14T12:27:04;5.38;;;3.22;;
53052;SDS011;38934;52.690;6.184;2023-05-14T12:29:34;6.03;;;3.40;;
53052;SDS011;38934;52.690;6.184;2023-05-14T12:32:06;5.32;;;3.33;;
53052;SDS011;38934;52.690;6.184;2023-05-14T12:34:33;3.92;;;3.10;;
53052;SDS011;38934;52.690;6.184;2023-05-14T12:37:00;7.45;;;3.53;;
53052;SDS011;38934;52.690;6.184;2023-05-14T12:39:26;7.75;;;3.25;;
53052;SDS011;38934;52.690;6.184;2023-05-14T12:41:57;5.50;;;3.10;;
53052;SDS011;38934;52.690;6.184;2023-05-14T12:44:22;4.63;;;3.00;;
53052;SDS011;38934;52.690;6.184;2023-05-14T12:46:51;6.28;;;3.20;;
53052;SDS011;38934;52.690;6.184;2023-05-14T12:49:17;3.80;;;2.90;;
53052;SDS011;38934;52.690;6.184;2023-05-14T12:51:56;4.63;;;2.70;;
53052;SDS011;38934;52.690;6.184;2023-05-14T12:54:45;3.85;;;2.70;;
53052;SDS011;38934;52.690;6.184;2023-05-14T12:57:24;4.53;;;2.90;;
53052;SDS011;38934;52.690;6.184;2023-05-14T12:59:53;4.65;;;2.85;;
53052;SDS011;38934;52.690;6.184;2023-05-14T13:02:19;4.32;;;3.10;;
53052;SDS011;38934;52.690;6.184;2023-05-14T13:04:54;4.13;;;2.47;;
53052;SDS011;38934;52.690;6.184;2023-05-14T13:07:20;4.70;;;2.78;;
53052;SDS011;38934;52.690;6.184;2023-05-14T13:09:46;4.22;;;2.63;;
53052;SDS011;38934;52.690;6.184;2023-05-14T13:12:11;3.00;;;2.70;;
53052;SDS011;38934;52.690;6.184;2023-05-14T13:14:37;4.93;;;2.85;;
53052;SDS011;38934;52.690;6.184;2023-05-14T13:17:02;3.92;;;3.13;;
53052;SDS011;38934;52.690;6.184;2023-05-14T13:19:29;5.00;;;2.90;;
53052;SDS011;38934;52.690;6.184;2023-05-14T13:21:55;5.35;;;3.10;;
53052;SDS011;38934;52.690;6.184;2023-05-14T13:29:31;4.22;;;3.38;;
53052;SDS011;38934;52.690;6.184;2023-05-14T13:31:58;5.13;;;3.17;;
53052;SDS011;38934;52.690;6.184;2023-05-14T13:34:25;5.40;;;3.20;;
53052;SDS011;38934;52.690;6.184;2023-05-14T13:36:55;4.90;;;3.20;;
53052;SDS011;38934;52.690;6.184;2023-05-14T13:39:20;7.18;;;2.80;;
53052;SDS011;38934;52.690;6.184;2023-05-14T13:41:50;4.82;;;3.08;;
53052;SDS011;38934;52.690;6.184;2023-05-14T13:44:19;5.97;;;2.80;;
53052;SDS011;38934;52.690;6.184;2023-05-14T13:46:46;4.03;;;3.10;;
53052;SDS011;38934;52.690;6.184;2023-05-14T13:49:14;5.75;;;3.40;;
53052;SDS011;38934;52.690;6.184;2023-05-14T13:51:41;5.88;;;3.00;;
53052;SDS011;38934;52.690;6.184;2023-05-14T13:54:06;5.30;;;3.25;;
53052;SDS011;38934;52.690;6.184;2023-05-14T13:56:32;3.70;;;2.83;;
53052;SDS011;38934;52.690;6.184;2023-05-14T13:58:57;3.72;;;2.80;;
53052;SDS011;38934;52.690;6.184;2023-05-14T14:01:23;4.43;;;2.92;;
53052;SDS011;38934;52.690;6.184;2023-05-14T14:03:49;6.35;;;2.78;;
53052;SDS011;38934;52.690;6.184;2023-05-14T14:06:15;4.15;;;2.80;;
53052;SDS011;38934;52.690;6.184;2023-05-14T14:08:42;3.08;;;2.72;;
53052;SDS011;38934;52.690;6.184;2023-05-14T14:11:08;3.15;;;2.70;;
53052;SDS011;38934;52.690;6.184;2023-05-14T14:13:35;3.88;;;2.63;;
53052;SDS011;38934;52.690;6.184;2023-05-14T14:16:01;4.22;;;3.00;;
53052;SDS011;38934;52.690;6.184;2023-05-14T14:18:27;3.55;;;2.70;;
53052;SDS011;38934;52.690;6.184;2023-05-14T14:20:53;7.38;;;2.70;;
53052;SDS011;38934;52.690;6.184;2023-05-14T14:23:18;6.43;;;2.70;;
53052;SDS011;38934;52.690;6.184;2023-05-14T14:25:46;4.72;;;2.70;;
53052;SDS011;38934;52.690;6.184;2023-05-14T14:28:12;3.55;;;2.70;;
53052;SDS011;38934;52.690;6.184;2023-05-14T14:30:37;4.20;;;2.65;;
53052;SDS011;38934;52.690;6.184;2023-05-14T14:33:03;4.43;;;3.10;;
53052;SDS011;38934;52.690;6.184;2023-05-14T14:35:28;4.55;;;2.55;;
53052;SDS011;38934;52.690;6.184;2023-05-14T14:37:57;3.75;;;2.55;;
53052;SDS011;38934;52.690;6.184;2023-05-14T14:40:23;3.20;;;2.58;;
53052;SDS011;38934;52.690;6.184;2023-05-14T14:42:51;5.22;;;3.00;;
53052;SDS011;38934;52.690;6.184;2023-05-14T14:45:17;4.45;;;3.17;;
53052;SDS011;38934;52.690;6.184;2023-05-14T14:47:43;4.00;;;2.63;;
53052;SDS011;38934;52.690;6.184;2023-05-14T14:50:13;3.20;;;2.72;;
53052;SDS011;38934;52.690;6.184;2023-05-14T14:52:39;4.95;;;3.75;;
53052;SDS011;38934;52.690;6.184;2023-05-14T14:55:07;4.60;;;3.35;;
53052;SDS011;38934;52.690;6.184;2023-05-14T15:00:04;4.50;;;3.30;;
53052;SDS011;38934;52.690;6.184;2023-05-14T15:02:32;4.55;;;2.85;;
53052;SDS011;38934;52.690;6.184;2023-05-14T15:04:57;4.35;;;2.90;;
53052;SDS011;38934;52.690;6.184;2023-05-14T15:07:23;3.92;;;2.60;;
53052;SDS011;38934;52.690;6.184;2023-05-14T15:09:52;4.63;;;2.83;;
53052;SDS011;38934;52.690;6.184;2023-05-14T15:12:18;5.63;;;3.20;;
53052;SDS011;38934;52.690;6.184;2023-05-14T15:14:46;6.35;;;3.20;;
53052;SDS011;38934;52.690;6.184;2023-05-14T15:17:11;7.43;;;3.40;;
53052;SDS011;38934;52.690;6.184;2023-05-14T15:19:38;5.07;;;3.40;;
53052;SDS011;38934;52.690;6.184;2023-05-14T15:22:04;7.22;;;3.83;;
53052;SDS011;38934;52.690;6.184;2023-05-14T15:24:30;6.35;;;3.72;;
53052;SDS011;38934;52.690;6.184;2023-05-14T15:26:56;7.53;;;3.83;;
53052;SDS011;38934;52.690;6.184;2023-05-14T15:29:21;6.85;;;4.53;;
53052;SDS011;38934;52.690;6.184;2023-05-14T15:31:47;5.07;;;3.55;;
53052;SDS011;38934;52.690;6.184;2023-05-14T15:34:13;8.00;;;4.40;;
53052;SDS011;38934;52.690;6.184;2023-05-14T15:36:38;7.32;;;4.18;;
53052;SDS011;38934;52.690;6.184;2023-05-14T15:39:04;6.45;;;3.80;;
53052;SDS011;38934;52.690;6.184;2023-05-14T15:41:30;8.50;;;3.80;;
53052;SDS011;38934;52.690;6.184;2023-05-14T15:43:58;5.75;;;3.60;;
53052;SDS011;38934;52.690;6.184;2023-05-14T15:46:23;4.95;;;3.60;;
53052;SDS011;38934;52.690;6.184;2023-05-14T15:48:49;5.78;;;3.60;;
53052;SDS011;38934;52.690;6.184;2023-05-14T15:51:17;6.15;;;3.70;;
53052;SDS011;38934;52.690;6.184;2023-05-14T15:53:43;5.43;;;3.53;;
53052;SDS011;38934;52.690;6.184;2023-05-14T15:56:09;8.35;;;4.20;;
53052;SDS011;38934;52.690;6.184;2023-05-14T15:58:35;6.45;;;4.20;;
53052;SDS011;38934;52.690;6.184;2023-05-14T16:01:01;5.63;;;3.90;;
53052;SDS011;38934;52.690;6.184;2023-05-14T16:03:28;5.68;;;4.05;;
53052;SDS011;38934;52.690;6.184;2023-05-14T16:05:53;5.25;;;3.50;;
53052;SDS011;38934;52.690;6.184;2023-05-14T16:08:19;7.55;;;4.25;;
53052;SDS011;38934;52.690;6.184;2023-05-14T16:10:45;6.30;;;3.97;;
53052;SDS011;38934;52.690;6.184;2023-05-14T16:13:11;5.05;;;3.58;;
53052;SDS011;38934;52.690;6.184;2023-05-14T16:15:38;4.82;;;3.75;;
53052;SDS011;38934;52.690;6.184;2023-05-14T16:18:04;6.13;;;3.88;;
53052;SDS011;38934;52.690;6.184;2023-05-14T16:20:37;6.25;;;3.97;;
53052;SDS011;38934;52.690;6.184;2023-05-14T16:23:03;5.80;;;3.80;;
53052;SDS011;38934;52.690;6.184;2023-05-14T16:25:29;5.35;;;3.60;;
53052;SDS011;38934;52.690;6.184;2023-05-14T16:27:57;7.60;;;3.97;;
53052;SDS011;38934;52.690;6.184;2023-05-14T16:30:24;7.57;;;4.57;;
53052;SDS011;38934;52.690;6.184;2023-05-14T16:35:25;7.40;;;4.40;;
53052;SDS011;38934;52.690;6.184;2023-05-14T16:38:01;7.18;;;4.53;;